Richland, Pennsylvania
Current Conditions -  °F | °C
As of 10:54 AM on Sunday 23 Nov 2014 (Local Time) from KRDG Reporting Station
Clear Clear  
Wind Chill: 50°   Ceiling: Unl
Heat Index: 50°   Visibility: 10mi
Dew Point: 22°   Wind: 0mph
Humidity: 33%   Direction: NA
Pressure: 30.18"   Gusts: NA
Location:  40.36°N, 76.26°W
Report Text: KRDG 231554Z 00000KT 10SM CLR 10/M06 A3018 RMK AO2 SLP226 T01001056
Loading
Personal Weather Stations






























Interactive Weather Map New forecast layout! Learn more

10-Day Weather Forecast

Advertisements
Track Severe Weather on mobile